Time;durP1;ratioP1;P1;durP2;ratioP2;P2;SDS_P1;SDS_P2;PMS_P1;PMS_P2;Temp;Humidity;BMP_temperature;BMP_pressure;BME280_temperature;BME280_humidity;BME280_pressure;Samples;Min_cycle;Max_cycle;Signal;HPM_P1;HPM_P2
2022/08/14 00:00:29;;;;;;;19.50;13.35;;;19.60;99.90;;;;;;4954185;28;20031;-71
2022/08/14 00:02:55;;;;;;;21.30;13.43;;;19.70;99.90;;;;;;4955288;28;20023;-63
2022/08/14 00:05:21;;;;;;;21.40;13.15;;;19.70;99.90;;;;;;4954135;28;20039;-74
2022/08/14 00:07:48;;;;;;;19.70;12.13;;;19.70;99.90;;;;;;4953778;28;20038;-72
2022/08/14 00:10:18;;;;;;;17.60;12.65;;;19.80;99.90;;;;;;4954038;28;20379;-72
2022/08/14 00:12:52;;;;;;;19.02;13.55;;;19.70;99.90;;;;;;4953377;28;20031;-69
2022/08/14 00:15:23;;;;;;;15.93;11.50;;;19.70;99.90;;;;;;4954031;28;20023;-74
2022/08/14 00:17:50;;;;;;;17.80;12.77;;;19.70;99.90;;;;;;4953949;28;20027;-68
2022/08/14 00:20:19;;;;;;;17.77;12.40;;;19.70;99.90;;;;;;4954062;28;20090;-73
2022/08/14 00:22:45;;;;;;;19.20;13.82;;;19.70;99.90;;;;;;4953372;28;20057;-74
2022/08/14 00:25:10;;;;;;;19.10;13.23;;;19.60;99.90;;;;;;4953925;28;20055;-74
2022/08/14 00:27:37;;;;;;;18.65;13.20;;;19.60;99.90;;;;;;4953337;28;20035;-74
2022/08/14 00:30:06;;;;;;;21.00;12.73;;;19.60;99.90;;;;;;4956044;28;20023;-72
2022/08/14 00:32:32;;;;;;;23.50;14.27;;;19.70;99.90;;;;;;4957020;28;20412;-66
2022/08/14 00:35:00;;;;;;;21.20;16.05;;;19.70;99.90;;;;;;4957359;28;20032;-72
2022/08/14 00:37:29;;;;;;;19.02;14.25;;;19.60;99.90;;;;;;4957929;28;20031;-74
2022/08/14 00:39:55;;;;;;;22.27;15.43;;;19.50;99.90;;;;;;4957881;28;20063;-69
2022/08/14 00:42:22;;;;;;;21.20;14.20;;;19.60;99.90;;;;;;4957495;28;20055;-73
2022/08/14 00:44:48;;;;;;;18.77;13.93;;;19.50;99.90;;;;;;4956514;28;20043;-73
2022/08/14 00:47:16;;;;;;;18.25;13.30;;;19.40;99.90;;;;;;4956832;28;20082;-71
2022/08/14 00:49:42;;;;;;;18.52;13.30;;;19.50;99.90;;;;;;4956645;28;20070;-70
2022/08/14 00:52:08;;;;;;;18.50;13.15;;;19.40;99.90;;;;;;4956789;28;20035;-72
2022/08/14 00:54:37;;;;;;;18.52;12.98;;;19.40;99.90;;;;;;4956956;28;20098;-72
2022/08/14 00:57:04;;;;;;;19.77;13.32;;;19.30;99.90;;;;;;4957038;28;20020;-73
2022/08/14 00:59:30;;;;;;;19.58;12.43;;;19.30;99.90;;;;;;4957177;28;20478;-74
2022/08/14 01:01:58;;;;;;;18.40;12.10;;;19.20;99.90;;;;;;4957368;28;20118;-72
2022/08/14 01:04:27;;;;;;;18.85;13.00;;;19.30;99.90;;;;;;4957436;28;20038;-70
2022/08/14 01:06:53;;;;;;;18.10;13.10;;;19.20;99.90;;;;;;4957110;28;20025;-73
2022/08/14 01:09:23;;;;;;;19.23;11.90;;;19.20;99.90;;;;;;4957134;28;20023;-72
2022/08/14 01:11:52;;;;;;;17.92;12.05;;;19.20;99.90;;;;;;4956383;28;20071;-73
2022/08/14 01:14:19;;;;;;;18.88;12.88;;;19.20;99.90;;;;;;4956962;28;20023;-72
2022/08/14 01:16:48;;;;;;;16.90;12.15;;;19.20;99.90;;;;;;4956616;28;20035;-73
2022/08/14 01:21:59;;;;;;;19.25;12.63;;;19.10;99.90;;;;;;4955629;28;20039;-70
2022/08/14 01:24:25;;;;;;;18.92;13.73;;;19.00;99.90;;;;;;4956285;28;20023;-72
2022/08/14 01:26:52;;;;;;;19.35;13.60;;;19.00;99.90;;;;;;4956139;28;20441;-72
2022/08/14 01:29:19;;;;;;;19.20;14.13;;;19.00;99.90;;;;;;4956236;28;20492;-71
2022/08/14 01:31:47;;;;;;;20.83;14.60;;;18.90;99.90;;;;;;4956526;29;20371;-73
2022/08/14 01:34:13;;;;;;;22.38;13.65;;;18.90;99.90;;;;;;4956279;28;20019;-71
2022/08/14 01:36:39;;;;;;;19.77;14.60;;;19.00;99.90;;;;;;4956607;28;20492;-69
2022/08/14 01:39:10;;;;;;;19.90;13.73;;;19.00;99.90;;;;;;4955854;28;20022;-73
2022/08/14 01:41:37;;;;;;;18.48;13.05;;;19.00;99.90;;;;;;4956296;28;20039;-74
2022/08/14 01:44:11;;;;;;;18.67;13.75;;;18.90;99.90;;;;;;4955820;28;20379;-73
2022/08/14 01:46:40;;;;;;;19.27;14.15;;;18.90;99.90;;;;;;4956321;28;20028;-71
2022/08/14 01:49:09;;;;;;;21.65;13.38;;;18.80;99.90;;;;;;4956333;28;21560;-73
2022/08/14 01:51:38;;;;;;;23.52;13.50;;;18.90;99.90;;;;;;4956485;28;20051;-72
2022/08/14 01:54:09;;;;;;;17.92;12.70;;;18.80;99.90;;;;;;4956482;28;20053;-73
2022/08/14 01:56:37;;;;;;;19.83;12.83;;;18.80;99.90;;;;;;4956345;28;20565;-73
2022/08/14 01:59:20;;;;;;;17.73;12.20;;;18.80;99.90;;;;;;4956379;28;20027;-74
2022/08/14 02:01:50;;;;;;;17.33;12.23;;;18.80;99.90;;;;;;4956194;28;20179;-73
2022/08/14 02:04:16;;;;;;;14.88;10.45;;;18.80;99.90;;;;;;4956217;28;20037;-71
2022/08/14 02:06:43;;;;;;;18.23;11.38;;;18.70;99.90;;;;;;4956082;28;20031;-72
2022/08/14 02:09:09;;;;;;;16.33;11.90;;;18.80;99.90;;;;;;4955734;28;20039;-73
2022/08/14 02:11:35;;;;;;;16.85;11.40;;;18.80;99.90;;;;;;4955843;28;20037;-72
2022/08/14 02:14:05;;;;;;;17.00;10.80;;;18.70;99.90;;;;;;4955957;28;20030;-74
2022/08/14 02:16:35;;;;;;;18.05;10.95;;;18.80;99.90;;;;;;4956381;28;20035;-74
2022/08/14 02:19:08;;;;;;;16.02;10.95;;;18.90;99.90;;;;;;4955964;28;20552;-72
2022/08/14 02:21:35;;;;;;;16.27;10.88;;;18.80;99.90;;;;;;4955866;28;20038;-74
2022/08/14 02:24:03;;;;;;;15.82;11.23;;;18.80;99.90;;;;;;4955735;28;20019;-73
2022/08/14 02:26:39;;;;;;;15.02;10.32;;;18.80;99.90;;;;;;4955932;28;20031;-73
2022/08/14 02:29:12;;;;;;;15.88;10.55;;;18.80;99.90;;;;;;4955856;28;20027;-74
2022/08/14 02:31:41;;;;;;;14.75;10.32;;;18.80;99.90;;;;;;4955824;28;20074;-73
2022/08/14 02:34:19;;;;;;;14.55;10.30;;;18.80;99.90;;;;;;4950991;28;20031;-70
2022/08/14 02:36:47;;;;;;;17.05;12.35;;;18.70;99.90;;;;;;4951685;29;20027;-72
2022/08/14 02:39:14;;;;;;;16.77;11.10;;;18.70;99.90;;;;;;4954386;28;20026;-73
2022/08/14 02:41:41;;;;;;;15.63;10.75;;;18.70;99.90;;;;;;4954102;28;20562;-73
2022/08/14 02:44:09;;;;;;;15.38;10.45;;;18.60;99.90;;;;;;4953665;28;20044;-72
2022/08/14 02:46:36;;;;;;;18.55;11.70;;;18.60;99.90;;;;;;4954591;29;20110;-73
2022/08/14 02:49:05;;;;;;;16.02;10.38;;;18.60;99.90;;;;;;4954072;28;20375;-73
2022/08/14 02:51:32;;;;;;;16.38;10.63;;;18.60;99.90;;;;;;4953828;28;20394;-73
2022/08/14 02:54:00;;;;;;;17.90;11.48;;;18.60;99.90;;;;;;4968892;28;20425;-72
2022/08/14 02:56:26;;;;;;;15.77;10.20;;;18.60;99.90;;;;;;4953537;28;20126;-73
2022/08/14 02:58:55;;;;;;;16.92;10.50;;;18.60;99.90;;;;;;4953804;29;20027;-73
2022/08/14 03:01:23;;;;;;;16.67;11.10;;;18.60;99.90;;;;;;4984476;28;20467;-73
2022/08/14 03:03:50;;;;;;;15.90;11.10;;;18.60;99.90;;;;;;4953666;28;20019;-73
2022/08/14 03:06:22;;;;;;;16.05;10.23;;;18.60;99.90;;;;;;4953595;29;20038;-72
2022/08/14 03:08:48;;;;;;;16.23;10.52;;;18.60;99.90;;;;;;4953967;28;20023;-72
2022/08/14 03:11:14;;;;;;;16.02;10.55;;;18.60;99.90;;;;;;4954596;28;20438;-72
2022/08/14 03:13:46;;;;;;;17.73;11.25;;;18.60;99.90;;;;;;4954618;28;20081;-73
2022/08/14 03:16:15;;;;;;;17.55;10.82;;;18.60;99.90;;;;;;4955140;28;20047;-63
2022/08/14 03:18:44;;;;;;;14.30;10.82;;;18.60;99.90;;;;;;4955094;28;20050;-73
2022/08/14 03:21:13;;;;;;;15.75;10.05;;;18.60;99.90;;;;;;4954465;28;20397;-73
2022/08/14 03:23:45;;;;;;;17.52;11.60;;;18.60;99.90;;;;;;4954623;29;20106;-72
2022/08/14 03:26:17;;;;;;;16.50;11.23;;;18.50;99.90;;;;;;4954901;28;20054;-73
2022/08/14 03:28:49;;;;;;;19.02;11.57;;;18.60;99.90;;;;;;4954552;28;20034;-72
2022/08/14 03:31:20;;;;;;;17.23;10.95;;;18.60;99.90;;;;;;4954788;28;20042;-73
2022/08/14 03:33:47;;;;;;;18.00;12.10;;;18.50;99.90;;;;;;4954509;28;20544;-73
2022/08/14 03:36:15;;;;;;;16.52;11.30;;;18.50;99.90;;;;;;4954354;28;20063;-73
2022/08/14 03:38:46;;;;;;;16.02;11.40;;;18.50;99.90;;;;;;4955256;28;20026;-71
2022/08/14 03:41:15;;;;;;;16.05;11.05;;;18.50;99.90;;;;;;4954047;28;20393;-73
2022/08/14 03:43:50;;;;;;;17.70;12.15;;;18.50;99.90;;;;;;4953910;28;20101;-73
2022/08/14 03:46:17;;;;;;;17.88;11.82;;;18.40;99.90;;;;;;4954192;28;20046;-73
2022/08/14 03:48:44;;;;;;;20.65;12.13;;;18.40;99.90;;;;;;4954049;28;20045;-74
2022/08/14 03:51:12;;;;;;;16.95;12.18;;;18.40;99.90;;;;;;4953981;28;20041;-73
2022/08/14 03:53:41;;;;;;;18.20;12.27;;;18.40;99.90;;;;;;4952596;28;20650;-73
2022/08/14 03:56:13;;;;;;;20.20;13.10;;;18.40;99.90;;;;;;4953084;28;20725;-72
2022/08/14 03:58:41;;;;;;;16.70;12.25;;;18.40;99.90;;;;;;4953516;28;20102;-69
2022/08/14 04:01:08;;;;;;;21.30;12.48;;;18.50;99.90;;;;;;4953455;28;20039;-73
2022/08/14 04:03:35;;;;;;;19.60;12.73;;;18.50;99.90;;;;;;4952972;28;20026;-73
2022/08/14 04:06:01;;;;;;;17.00;11.75;;;18.50;99.90;;;;;;4953789;28;20055;-72
2022/08/14 04:08:28;;;;;;;19.42;13.30;;;18.50;99.90;;;;;;4953820;28;20102;-73
2022/08/14 04:10:55;;;;;;;22.05;13.63;;;18.60;99.90;;;;;;4953659;28;20118;-72
2022/08/14 04:13:21;;;;;;;19.67;13.90;;;18.60;99.90;;;;;;4955684;28;20031;-72
2022/08/14 04:15:47;;;;;;;19.00;13.73;;;18.60;99.90;;;;;;4962314;28;20086;-71
2022/08/14 04:18:13;;;;;;;19.45;13.82;;;18.60;99.90;;;;;;4954506;28;20015;-72
2022/08/14 04:20:41;;;;;;;19.88;13.98;;;18.60;99.90;;;;;;4963477;28;20050;-73
2022/08/14 04:23:08;;;;;;;21.45;14.23;;;18.60;99.90;;;;;;4953596;28;20070;-72
2022/08/14 04:25:36;;;;;;;20.90;15.63;;;18.70;99.90;;;;;;4965342;28;20062;-73
2022/08/14 04:28:05;;;;;;;21.40;14.70;;;18.70;99.90;;;;;;4953294;28;20027;-71
2022/08/14 04:30:37;;;;;;;26.10;17.67;;;18.80;99.90;;;;;;4954326;28;20055;-73
2022/08/14 04:33:07;;;;;;;25.87;17.23;;;18.70;99.90;;;;;;4953567;28;20374;-71
2022/08/14 04:35:34;;;;;;;26.75;18.30;;;18.70;99.90;;;;;;4959566;28;20034;-74
2022/08/14 04:43:38;;;;;;;26.92;18.98;;;18.60;99.90;;;;;;4952367;28;20027;-72
2022/08/14 04:46:10;;;;;;;28.38;19.58;;;18.70;99.90;;;;;;4953552;28;20041;-73
2022/08/14 04:48:36;;;;;;;33.88;19.13;;;18.60;99.90;;;;;;4954468;28;20103;-73
2022/08/14 04:51:09;;;;;;;27.73;18.08;;;18.70;99.90;;;;;;4963947;28;20034;-72
2022/08/14 04:53:36;;;;;;;;;;;18.70;99.90;;;;;;4964329;28;20441;-73
2022/08/14 04:56:03;;;;;;;24.13;17.50;;;18.70;99.90;;;;;;4953501;28;19957;-73
2022/08/14 04:58:31;;;;;;;24.60;17.00;;;18.70;99.90;;;;;;4954331;28;20029;-72
2022/08/14 05:00:57;;;;;;;25.27;16.67;;;18.70;99.90;;;;;;4966240;28;20030;-73
2022/08/14 05:03:27;;;;;;;23.48;17.50;;;18.80;99.90;;;;;;4953962;28;20024;-73
2022/08/14 05:05:55;;;;;;;25.52;17.35;;;18.80;99.90;;;;;;4946903;28;20019;-72
2022/08/14 05:08:22;;;;;;;24.17;17.13;;;18.80;99.90;;;;;;4952500;28;20031;-73
2022/08/14 05:10:51;;;;;;;24.80;16.52;;;18.70;99.90;;;;;;4956978;28;20059;-73
2022/08/14 05:13:22;;;;;;;24.70;17.20;;;18.70;99.90;;;;;;4961186;28;20045;-70
2022/08/14 05:15:48;;;;;;;25.92;17.92;;;18.80;99.90;;;;;;4967255;28;20030;-72
2022/08/14 05:18:26;;;;;;;23.83;17.13;;;18.70;99.90;;;;;;4957906;28;20635;-70
2022/08/14 05:20:54;;;;;;;23.48;17.13;;;18.70;99.90;;;;;;4956554;28;20030;-71
2022/08/14 05:23:22;;;;;;;22.67;15.35;;;18.80;99.90;;;;;;4960481;28;20038;-73
2022/08/14 05:25:53;;;;;;;23.90;16.20;;;18.80;99.90;;;;;;4956388;28;20491;-73
2022/08/14 05:28:25;;;;;;;23.40;16.67;;;18.80;99.90;;;;;;4958736;28;20470;-73
2022/08/14 05:30:54;;;;;;;23.70;16.98;;;18.80;99.90;;;;;;4955958;28;20094;-72
2022/08/14 05:33:23;;;;;;;24.58;16.20;;;18.80;99.90;;;;;;4958567;28;20031;-73
2022/08/14 05:35:51;;;;;;;23.48;16.58;;;18.80;99.90;;;;;;4959552;28;20359;-73
2022/08/14 05:38:20;;;;;;;23.50;16.00;;;18.90;99.90;;;;;;4956615;28;20035;-73
2022/08/14 05:40:48;;;;;;;25.58;17.98;;;18.90;99.90;;;;;;4957137;28;20435;-73
2022/08/14 05:43:14;;;;;;;25.40;15.93;;;18.90;99.90;;;;;;4956076;28;20030;-73
2022/08/14 05:45:41;;;;;;;21.77;16.00;;;18.90;99.90;;;;;;4960667;28;20444;-71
2022/08/14 05:48:12;;;;;;;25.90;16.23;;;19.00;99.90;;;;;;4957476;28;20027;-74
2022/08/14 05:50:39;;;;;;;22.20;14.93;;;19.10;99.90;;;;;;4956483;28;20031;-73
2022/08/14 05:53:04;;;;;;;20.70;15.38;;;19.10;99.90;;;;;;4967085;28;20031;-72
2022/08/14 05:55:31;;;;;;;23.05;15.30;;;19.10;99.90;;;;;;4961118;28;20034;-73
2022/08/14 05:57:59;;;;;;;20.73;14.68;;;19.10;99.90;;;;;;4952711;28;20050;-72
2022/08/14 06:00:28;;;;;;;23.55;14.55;;;19.20;99.90;;;;;;4954435;28;20048;-73
2022/08/14 06:02:55;;;;;;;22.13;13.80;;;19.10;99.90;;;;;;4956788;28;20142;-74
2022/08/14 06:05:22;;;;;;;21.67;14.52;;;19.10;99.90;;;;;;4961606;28;20034;-72
2022/08/14 06:07:48;;;;;;;19.02;13.93;;;19.10;99.90;;;;;;4955653;28;20027;-73
2022/08/14 06:10:13;;;;;;;22.00;14.52;;;19.20;99.90;;;;;;4955721;28;20090;-73
2022/08/14 06:12:39;;;;;;;20.75;13.23;;;19.20;99.90;;;;;;4955662;28;20119;-73
2022/08/14 06:15:07;;;;;;;17.35;11.60;;;19.20;99.90;;;;;;4955967;28;20466;-72
2022/08/14 06:17:46;;;;;;;20.38;13.32;;;19.30;99.90;;;;;;4955635;28;20032;-72
2022/08/14 06:20:13;;;;;;;19.88;12.95;;;19.30;99.90;;;;;;4957380;28;20030;-73
2022/08/14 06:22:41;;;;;;;19.60;12.70;;;19.50;99.90;;;;;;4956346;28;20096;-70
2022/08/14 06:25:08;;;;;;;22.77;13.20;;;19.60;99.90;;;;;;4955061;28;20537;-69
2022/08/14 06:27:36;;;;;;;18.35;12.43;;;19.70;99.90;;;;;;4957675;28;20034;-72
2022/08/14 06:30:04;;;;;;;19.05;12.77;;;19.70;99.90;;;;;;4953738;28;20035;-72
2022/08/14 06:32:30;;;;;;;18.33;11.57;;;19.70;99.90;;;;;;4954678;28;20078;-73
2022/08/14 06:34:56;;;;;;;17.23;11.85;;;19.90;99.90;;;;;;4954849;28;20520;-72
2022/08/14 06:37:22;;;;;;;16.98;11.77;;;20.00;99.90;;;;;;4954516;28;20135;-72
2022/08/14 06:39:48;;;;;;;17.35;11.05;;;20.20;99.90;;;;;;4955480;28;20019;-71
2022/08/14 06:42:13;;;;;;;15.57;11.25;;;20.70;99.90;;;;;;4953837;28;20038;-73
2022/08/14 06:44:40;;;;;;;14.68;9.85;;;21.00;99.90;;;;;;4953987;28;20502;-72
2022/08/14 06:47:06;;;;;;;13.70;9.48;;;21.20;99.90;;;;;;4957093;28;20761;-72
2022/08/14 06:49:32;;;;;;;13.25;8.80;;;20.80;99.90;;;;;;4955377;28;20022;-72
2022/08/14 06:51:59;;;;;;;12.80;8.77;;;20.90;99.90;;;;;;4954103;28;20475;-72
2022/08/14 06:54:25;;;;;;;14.27;8.70;;;21.10;99.90;;;;;;4956216;28;20019;-73
2022/08/14 07:11:37;;;;;;;11.25;7.15;;;21.10;99.90;;;;;;4955034;28;20046;-72
2022/08/14 07:14:43;;;;;;;13.93;7.05;;;20.80;99.90;;;;;;4953775;28;20528;-73
2022/08/14 07:17:09;;;;;;;11.52;7.43;;;20.70;99.90;;;;;;4954605;28;20035;-73
2022/08/14 07:19:35;;;;;;;12.60;7.53;;;20.80;99.90;;;;;;4955004;28;20042;-72
2022/08/14 07:22:01;;;;;;;13.27;7.93;;;21.00;99.90;;;;;;4953237;28;20089;-65
2022/08/14 07:24:27;;;;;;;13.05;7.68;;;21.00;99.90;;;;;;4953187;28;20034;-72
2022/08/14 07:26:52;;;;;;;12.30;7.82;;;21.20;99.90;;;;;;4953712;28;20039;-63
2022/08/14 07:29:21;;;;;;;13.18;9.20;;;21.30;99.90;;;;;;4955137;28;20015;-63
2022/08/14 07:31:47;;;;;;;16.88;10.45;;;21.40;99.90;;;;;;4952920;28;20473;-74
2022/08/14 07:34:12;;;;;;;16.40;10.70;;;21.30;99.90;;;;;;4954497;28;20116;-67
2022/08/14 07:36:38;;;;;;;15.52;9.98;;;21.40;99.90;;;;;;4954487;28;20102;-74
2022/08/14 07:39:04;;;;;;;15.77;10.65;;;21.50;99.90;;;;;;4955484;28;20031;-70
2022/08/14 07:41:30;;;;;;;16.83;10.82;;;21.60;99.90;;;;;;4960339;28;20023;-73
2022/08/14 07:43:56;;;;;;;15.18;10.65;;;21.60;99.90;;;;;;4953722;28;20142;-75
2022/08/14 07:46:22;;;;;;;16.23;11.35;;;21.50;99.90;;;;;;4959867;28;20027;-72
2022/08/14 07:48:48;;;;;;;17.40;12.02;;;21.70;99.90;;;;;;4959413;28;20019;-71
2022/08/14 07:51:14;;;;;;;18.05;11.05;;;21.70;99.90;;;;;;4956740;28;20572;-70
2022/08/14 07:53:40;;;;;;;15.98;11.07;;;21.90;99.90;;;;;;4953804;28;20030;-74
2022/08/14 07:56:06;;;;;;;15.60;10.90;;;22.00;99.90;;;;;;4954166;28;20145;-75
2022/08/14 07:58:32;;;;;;;15.73;11.35;;;22.40;99.90;;;;;;4953512;28;20081;-73
2022/08/14 08:00:58;;;;;;;16.42;11.35;;;22.80;99.90;;;;;;4953665;28;20082;-74
2022/08/14 08:03:26;;;;;;;15.73;10.32;;;23.10;99.90;;;;;;4952949;28;20031;-75
2022/08/14 08:05:52;;;;;;;14.68;10.27;;;23.20;99.90;;;;;;4953264;28;20038;-73
2022/08/14 08:08:19;;;;;;;14.60;9.35;;;22.90;99.90;;;;;;4954148;28;20031;-77
2022/08/14 08:10:48;;;;;;;15.80;10.65;;;22.90;99.90;;;;;;4952771;28;20024;-75
2022/08/14 08:13:20;;;;;;;13.52;9.57;;;22.70;99.90;;;;;;4953491;28;20114;-76
2022/08/14 08:15:48;;;;;;;14.07;9.18;;;22.40;99.90;;;;;;4956723;28;20031;-73
2022/08/14 08:18:16;;;;;;;13.82;8.40;;;22.40;99.90;;;;;;4957404;28;20042;-75
2022/08/14 08:20:48;;;;;;;15.35;9.60;;;22.20;99.90;;;;;;4953124;28;20058;-74
2022/08/14 08:23:16;;;;;;;19.80;10.40;;;22.20;99.90;;;;;;4953361;28;20028;-75
2022/08/14 08:25:45;;;;;;;15.13;9.10;;;22.40;99.90;;;;;;4960525;28;20034;-74
2022/08/14 08:28:14;;;;;;;15.15;9.52;;;22.30;99.90;;;;;;4956908;28;20474;-76
2022/08/14 08:30:45;;;;;;;17.63;9.88;;;22.20;99.90;;;;;;4954155;28;20050;-74
2022/08/14 08:33:14;;;;;;;14.00;9.40;;;22.30;99.90;;;;;;4953114;28;20031;-74
2022/08/14 08:35:40;;;;;;;14.02;9.55;;;22.20;99.90;;;;;;4952966;28;20024;-69
2022/08/14 08:38:07;;;;;;;14.45;9.95;;;22.30;99.90;;;;;;4953108;28;20031;-75
2022/08/14 08:40:36;;;;;;;18.55;10.13;;;22.40;99.90;;;;;;4953013;28;20098;-76
2022/08/14 08:43:15;;;;;;;14.20;9.30;;;22.50;99.90;;;;;;4953774;28;20035;-72
2022/08/14 08:45:41;;;;;;;14.05;9.30;;;22.30;99.90;;;;;;4952655;28;20093;-75
2022/08/14 08:48:07;;;;;;;14.13;8.90;;;22.50;99.90;;;;;;4962456;28;20085;-75
2022/08/14 08:50:38;;;;;;;13.52;9.18;;;22.50;99.90;;;;;;4956647;28;20114;-75
2022/08/14 08:53:09;;;;;;;13.30;8.75;;;22.50;99.90;;;;;;4956812;28;20158;-75
2022/08/14 08:55:37;;;;;;;14.60;9.43;;;22.50;99.90;;;;;;4956853;28;20027;-75
2022/08/14 08:58:06;;;;;;;12.00;8.38;;;22.50;99.90;;;;;;4962406;28;20019;-75
2022/08/14 09:00:33;;;;;;;13.40;8.82;;;22.60;99.90;;;;;;4956800;28;20069;-76
2022/08/14 09:03:04;;;;;;;13.13;8.10;;;22.50;99.90;;;;;;4959933;28;20028;-75
2022/08/14 09:05:33;;;;;;;12.20;7.95;;;22.50;99.90;;;;;;4957655;28;20035;-74
2022/08/14 09:08:39;;;;;;;11.90;7.88;;;22.60;99.90;;;;;;4956807;28;20529;-75
2022/08/14 09:11:08;;;;;;;11.43;7.25;;;22.70;99.90;;;;;;4962791;28;20198;-74
2022/08/14 09:13:35;;;;;;;11.63;7.35;;;22.90;99.90;;;;;;4972615;28;20138;-66
2022/08/14 09:16:01;;;;;;;12.23;7.68;;;23.10;99.90;;;;;;4966720;28;20500;-75
2022/08/14 09:18:27;;;;;;;13.75;7.03;;;23.10;99.90;;;;;;4956396;28;20023;-74
2022/08/14 09:20:55;;;;;;;9.95;6.15;;;23.20;99.90;;;;;;4957357;28;20078;-76
2022/08/14 09:23:22;;;;;;;10.15;6.32;;;23.10;99.90;;;;;;4968672;28;20023;-75
2022/08/14 09:25:49;;;;;;;14.23;6.78;;;23.20;99.90;;;;;;4957603;28;20489;-72
2022/08/14 09:28:17;;;;;;;10.82;6.68;;;23.20;99.90;;;;;;4958299;28;20035;-73
2022/08/14 09:30:52;;;;;;;11.48;6.75;;;23.20;99.90;;;;;;4956059;28;20023;-71
2022/08/14 09:33:36;;;;;;;9.60;6.57;;;23.40;99.90;;;;;;4966322;28;20032;-64
2022/08/14 09:36:02;;;;;;;12.05;7.53;;;23.60;99.90;;;;;;4951390;29;20054;-76
2022/08/14 09:39:02;;;;;;;12.63;7.10;;;23.70;99.90;;;;;;4954431;28;20027;-74
2022/08/14 09:41:43;;;;;;;13.02;6.93;;;24.00;99.90;;;;;;4944909;28;20031;-73
2022/08/14 09:44:37;;;;;;;12.10;6.43;;;24.30;99.90;;;;;;4956642;28;20047;-75
2022/08/14 09:47:03;;;;;;;10.18;6.32;;;24.20;99.90;;;;;;4963261;28;20122;-77
2022/08/14 09:49:38;;;;;;;10.82;6.00;;;24.20;99.90;;;;;;4958286;28;20351;-68
2022/08/14 09:52:10;;;;;;;10.95;6.05;;;24.20;99.90;;;;;;4954364;29;20066;-73
2022/08/14 09:54:39;;;;;;;10.73;6.47;;;24.20;99.90;;;;;;4955153;28;20042;-74
2022/08/14 09:57:06;;;;;;;10.57;6.07;;;24.20;99.90;;;;;;4954773;28;20553;-75
2022/08/14 09:59:47;;;;;;;10.00;5.60;;;24.20;99.90;;;;;;4954180;28;20035;-75
2022/08/14 10:02:30;;;;;;;12.40;6.03;;;24.10;99.90;;;;;;4944305;28;20229;-76
2022/08/14 10:05:02;;;;;;;10.32;5.47;;;24.20;99.90;;;;;;4952502;28;20051;-75
2022/08/14 10:07:33;;;;;;;10.90;6.35;;;24.00;99.90;;;;;;4956217;28;20035;-70
2022/08/14 10:10:01;;;;;;;10.48;6.22;;;24.20;99.90;;;;;;4955327;28;20059;-64
2022/08/14 10:12:47;;;;;;;9.52;5.63;;;24.00;99.90;;;;;;4957096;28;20449;-63
2022/08/14 10:15:15;;;;;;;11.23;6.43;;;24.00;99.90;;;;;;4954189;28;20035;-73
2022/08/14 10:17:41;;;;;;;10.23;6.38;;;23.80;99.90;;;;;;4954965;28;20019;-73
2022/08/14 10:20:12;;;;;;;10.10;6.57;;;23.80;99.90;;;;;;4954624;29;20395;-73
2022/08/14 10:22:38;;;;;;;10.63;5.70;;;23.90;99.90;;;;;;4954160;28;20535;-62
2022/08/14 10:25:16;;;;;;;7.60;5.57;;;23.70;99.90;;;;;;4985570;28;20035;-63
2022/08/14 10:27:45;;;;;;;9.80;5.63;;;23.70;99.90;;;;;;4954448;28;20122;-74
2022/08/14 10:30:14;;;;;;;8.02;5.85;;;23.70;99.90;;;;;;4954605;28;20366;-73
2022/08/14 10:32:44;;;;;;;11.88;6.10;;;23.80;99.90;;;;;;4953869;28;20038;-73
2022/08/14 10:35:13;;;;;;;8.32;5.32;;;23.90;99.90;;;;;;4953240;28;20554;-75
2022/08/14 10:37:42;;;;;;;9.20;6.45;;;24.10;99.90;;;;;;4953469;28;20028;-75
2022/08/14 10:40:08;;;;;;;11.38;6.85;;;24.00;99.90;;;;;;4953874;28;20023;-74
2022/08/14 10:42:36;;;;;;;10.10;6.20;;;24.00;99.90;;;;;;4954012;28;20023;-74
2022/08/14 10:45:03;;;;;;;10.10;6.45;;;24.20;99.90;;;;;;4952397;28;20055;-73
2022/08/14 10:47:35;;;;;;;10.93;5.85;;;24.40;99.90;;;;;;4953357;29;20478;-75
2022/08/14 10:50:01;;;;;;;;;;;24.50;99.90;;;;;;4951667;29;20209;-75
2022/08/14 10:52:31;;;;;;;11.85;6.00;;;24.80;99.90;;;;;;4952722;28;19989;-75
2022/08/14 10:55:08;;;;;;;11.23;7.00;;;24.70;99.90;;;;;;4955583;28;20432;-71
2022/08/14 10:57:56;;;;;;;9.30;5.93;;;24.60;99.90;;;;;;4953734;28;20102;-69
2022/08/14 11:00:28;;;;;;;9.68;6.28;;;24.70;99.90;;;;;;4953803;28;20478;-63
2022/08/14 11:03:08;;;;;;;9.95;5.93;;;24.80;99.90;;;;;;4953285;28;20471;-71
2022/08/14 11:05:46;;;;;;;8.88;6.43;;;24.60;99.90;;;;;;4953464;28;20035;-67
2022/08/14 11:08:14;;;;;;;9.50;6.57;;;24.50;99.90;;;;;;4952929;28;20098;-71
2022/08/14 11:10:43;;;;;;;8.80;5.93;;;24.30;99.90;;;;;;4953649;28;20023;-72
2022/08/14 11:13:09;;;;;;;10.55;6.78;;;24.20;99.90;;;;;;4953026;28;20035;-72
2022/08/14 11:15:35;;;;;;;11.05;6.65;;;24.00;99.90;;;;;;4953816;28;20027;-74
2022/08/14 11:18:01;;;;;;;9.30;5.95;;;24.20;99.90;;;;;;4953596;28;20027;-75
2022/08/14 11:20:29;;;;;;;9.60;6.65;;;24.40;99.90;;;;;;4952157;28;20042;-71
2022/08/14 11:22:57;;;;;;;9.70;6.15;;;24.50;99.90;;;;;;4954081;28;20031;-69
2022/08/14 11:25:28;;;;;;;7.93;5.65;;;24.80;99.90;;;;;;4952663;28;20126;-66
2022/08/14 11:27:55;;;;;;;9.35;6.15;;;25.00;99.90;;;;;;4951960;28;20554;-70
2022/08/14 11:30:24;;;;;;;8.63;6.15;;;25.10;99.90;;;;;;4954181;28;20482;-71
2022/08/14 11:32:51;;;;;;;11.90;6.43;;;25.10;99.90;;;;;;4952724;28;20509;-73
2022/08/14 11:35:19;;;;;;;10.40;6.20;;;25.00;99.90;;;;;;4953185;28;20022;-73
2022/08/14 11:37:52;;;;;;;8.85;5.68;;;25.20;99.90;;;;;;4954320;28;20031;-76
2022/08/14 11:40:19;;;;;;;8.65;5.70;;;25.20;99.90;;;;;;4953988;28;20023;-69
2022/08/14 11:42:47;;;;;;;10.30;5.53;;;25.50;99.90;;;;;;4953048;28;20026;-74
2022/08/14 11:45:14;;;;;;;8.63;6.07;;;25.40;99.90;;;;;;4949904;28;20086;-73
2022/08/14 11:47:40;;;;;;;8.98;5.95;;;25.40;99.90;;;;;;4951722;28;20031;-68
2022/08/14 11:50:22;;;;;;;10.00;5.70;;;25.60;99.90;;;;;;4953320;28;20031;-66
2022/08/14 11:52:48;;;;;;;9.82;5.88;;;25.80;99.90;;;;;;4953237;28;20031;-75
2022/08/14 11:55:15;;;;;;;7.30;5.20;;;25.60;99.90;;;;;;4954832;28;20447;-75
2022/08/14 11:57:44;;;;;;;7.60;5.50;;;25.80;99.90;;;;;;4949708;28;20034;-73
2022/08/14 12:00:15;;;;;;;7.57;5.30;;;25.80;99.90;;;;;;4951165;28;20429;-75
2022/08/14 12:02:56;;;;;;;9.52;5.45;;;25.80;99.90;;;;;;4950722;28;20023;-72
2022/08/14 12:05:38;;;;;;;8.02;5.55;;;25.90;99.90;;;;;;4952087;28;20035;-73
2022/08/14 12:08:06;;;;;;;14.38;5.60;;;26.00;99.90;;;;;;4954687;28;20359;-73
2022/08/14 12:10:33;;;;;;;9.85;5.43;;;26.00;99.90;;;;;;4961238;28;20042;-73
2022/08/14 12:13:14;;;;;;;10.88;5.15;;;25.80;99.90;;;;;;4952117;28;20046;-72
2022/08/14 12:15:42;;;;;;;8.43;5.30;;;25.90;99.90;;;;;;4952130;28;20056;-74
2022/08/14 12:18:08;;;;;;;7.53;4.85;;;25.80;99.90;;;;;;4952653;28;20462;-72
2022/08/14 12:20:36;;;;;;;9.75;6.03;;;26.10;99.90;;;;;;4951923;28;20037;-73
2022/08/14 12:23:05;;;;;;;12.20;5.70;;;26.30;99.90;;;;;;4951990;28;20055;-72
2022/08/14 12:25:32;;;;;;;8.48;5.28;;;26.40;99.90;;;;;;4950771;28;20330;-74
2022/08/14 12:28:04;;;;;;;10.23;5.13;;;26.20;99.30;;;;;;4951721;28;20023;-74
2022/08/14 12:30:47;;;;;;;8.48;5.57;;;26.40;99.90;;;;;;4952354;28;20027;-73
2022/08/14 12:33:27;;;;;;;9.23;5.63;;;26.50;99.70;;;;;;4950357;28;20050;-74
2022/08/14 12:35:56;;;;;;;7.63;5.25;;;26.20;99.10;;;;;;4948544;29;20814;-75
2022/08/14 12:38:31;;;;;;;13.13;5.90;;;26.20;98.70;;;;;;4950734;28;20019;-73
2022/08/14 12:40:58;;;;;;;7.85;5.45;;;26.10;99.90;;;;;;4951717;28;20066;-75
2022/08/14 12:43:24;;;;;;;7.28;4.55;;;26.30;99.90;;;;;;4951506;28;20020;-74
2022/08/14 12:45:55;;;;;;;9.65;5.60;;;26.30;99.90;;;;;;4951486;28;20039;-67
2022/08/14 12:48:23;;;;;;;8.82;5.18;;;26.40;98.70;;;;;;4948995;28;20035;-62
2022/08/14 12:50:53;;;;;;;6.93;5.00;;;;;;;;;;4949800;29;20076;-68
2022/08/14 12:53:20;;;;;;;7.28;5.07;;;;;;;;;;4951222;28;20027;-64
2022/08/14 12:55:58;;;;;;;8.80;4.63;;;27.00;96.90;;;;;;4950879;28;20082;-77
2022/08/14 12:58:27;;;;;;;7.90;4.95;;;27.30;96.30;;;;;;4950440;28;20023;-69
2022/08/14 13:00:55;;;;;;;9.13;4.68;;;27.00;95.60;;;;;;4950407;28;20050;-72
2022/08/14 13:03:26;;;;;;;7.40;4.88;;;27.00;96.20;;;;;;4950259;28;20027;-71
2022/08/14 13:05:53;;;;;;;9.50;4.88;;;27.00;90.60;;;;;;4949281;29;20026;-72